createdAt,value
2018-09-12T00:00:33.003Z,19.50
2018-09-12T00:05:36.719Z,19.40
2018-09-12T00:10:40.319Z,19.40
2018-09-12T00:15:44.275Z,19.30
2018-09-12T00:20:47.954Z,19.20
2018-09-12T00:25:51.669Z,19.20
2018-09-12T00:30:55.322Z,19.10
2018-09-12T00:35:59.094Z,19.00
2018-09-12T00:41:02.772Z,18.90
2018-09-12T00:46:06.487Z,18.90
2018-09-12T00:51:10.244Z,18.90
2018-09-12T00:56:13.844Z,18.90
2018-09-12T01:01:17.416Z,18.90
2018-09-12T01:06:21.164Z,18.80
2018-09-12T01:11:25.746Z,18.70
2018-09-12T01:16:29.479Z,18.70
2018-09-12T01:21:34.232Z,18.60
2018-09-12T01:26:38.129Z,18.50
2018-09-12T01:31:41.703Z,18.50
2018-09-12T01:36:45.326Z,18.40
2018-09-12T01:41:48.928Z,18.40
2018-09-12T01:46:57.271Z,18.40
2018-09-12T01:52:00.929Z,18.20
2018-09-12T01:57:05.192Z,18.20
2018-09-12T02:02:09.083Z,18.20
2018-09-12T02:07:12.729Z,18.20
2018-09-12T02:12:16.675Z,18.10
2018-09-12T02:17:20.332Z,18.10
2018-09-12T02:22:23.963Z,18.00
2018-09-12T02:27:28.275Z,18.00
2018-09-12T02:32:32.920Z,18.00
2018-09-12T02:37:38.168Z,17.90
2018-09-12T02:42:41.999Z,17.90
2018-09-12T02:47:46.323Z,17.80
2018-09-12T02:52:49.930Z,17.80
2018-09-12T02:57:53.823Z,17.70
2018-09-12T03:02:57.453Z,17.70
2018-09-12T03:08:01.462Z,17.60
2018-09-12T03:13:05.049Z,17.60
2018-09-12T03:18:08.670Z,17.60
2018-09-12T03:23:13.220Z,17.50
2018-09-12T03:34:07.307Z,17.40
2018-09-12T03:39:12.171Z,17.40
2018-09-12T03:44:15.817Z,17.40
2018-09-12T03:49:19.423Z,17.40
2018-09-12T03:54:23.478Z,17.30
2018-09-12T03:59:28.254Z,17.30
2018-09-12T04:04:57.335Z,17.20
2018-09-12T04:15:43.878Z,17.20
2018-09-12T04:20:47.914Z,17.10
2018-09-12T04:25:51.597Z,17.10
2018-09-12T04:30:55.197Z,17.00
2018-09-12T04:35:59.970Z,17.10
2018-09-12T04:41:03.567Z,17.00
2018-09-12T04:46:07.473Z,17.00
2018-09-12T04:51:11.748Z,17.00
2018-09-12T04:56:18.960Z,17.10
2018-09-12T05:01:23.529Z,17.20
2018-09-12T05:06:29.245Z,17.20
2018-09-12T05:11:33.052Z,17.30
2018-09-12T05:16:36.799Z,17.30
2018-09-12T05:21:40.456Z,17.40
2018-09-12T05:26:44.100Z,17.30
2018-09-12T05:31:47.943Z,17.30
2018-09-12T05:36:51.528Z,17.30
2018-09-12T05:41:55.665Z,17.30
2018-09-12T05:46:59.289Z,17.40
2018-09-12T05:52:02.887Z,17.40
2018-09-12T05:57:06.505Z,17.50
2018-09-12T06:02:11.143Z,17.70
2018-09-12T06:07:14.924Z,17.80
2018-09-12T06:12:18.833Z,17.80
2018-09-12T06:17:24.969Z,17.90
2018-09-12T06:22:31.608Z,18.00
2018-09-12T06:27:35.208Z,18.10
2018-09-12T06:32:38.817Z,18.30
2018-09-12T06:37:42.509Z,18.20
2018-09-12T06:42:46.817Z,18.30
2018-09-12T06:47:50.407Z,18.60
2018-09-12T06:52:53.990Z,19.00
2018-09-12T06:57:58.180Z,19.30
2018-09-12T07:03:02.036Z,19.30
2018-09-12T07:08:06.119Z,19.40
2018-09-12T07:13:10.608Z,19.50
2018-09-12T07:18:14.212Z,19.50
2018-09-12T07:23:17.803Z,19.70
2018-09-12T07:28:22.048Z,19.90
2018-09-12T07:33:26.327Z,20.20
2018-09-12T07:38:29.953Z,20.50
2018-09-12T07:43:33.565Z,20.70
2018-09-12T07:48:38.461Z,20.90
2018-09-12T07:53:42.088Z,20.90
2018-09-12T07:58:45.747Z,21.10
2018-09-12T08:03:49.563Z,21.40
2018-09-12T08:08:53.569Z,21.70
2018-09-12T08:13:57.197Z,22.10
2018-09-12T08:19:00.847Z,22.40
2018-09-12T08:24:06.920Z,22.90
2018-09-12T08:29:10.654Z,23.60
2018-09-12T08:34:14.609Z,26.00
2018-09-12T08:39:18.284Z,31.20
2018-09-12T08:44:21.968Z,34.50
2018-09-12T08:49:26.106Z,36.60
2018-09-12T08:54:29.729Z,37.70
2018-09-12T08:59:34.294Z,37.80
2018-09-12T09:04:37.952Z,37.60
2018-09-12T09:09:41.752Z,36.60
2018-09-12T09:14:45.336Z,34.40
2018-09-12T09:19:49.276Z,32.60
2018-09-12T09:24:52.892Z,31.00
2018-09-12T09:29:56.536Z,29.60
2018-09-12T09:35:01.160Z,28.50
2018-09-12T09:40:07.000Z,28.00
2018-09-12T09:45:10.969Z,27.60
2018-09-12T09:50:15.723Z,27.60
2018-09-12T09:55:19.400Z,27.20
2018-09-12T10:00:28.207Z,27.30
2018-09-12T10:05:37.329Z,27.60
2018-09-12T10:10:40.934Z,27.90
2018-09-12T10:15:44.610Z,28.20
2018-09-12T10:20:48.180Z,28.10
2018-09-12T10:25:52.329Z,28.20
2018-09-12T10:30:55.981Z,28.40
2018-09-12T10:35:59.694Z,28.50
2018-09-12T10:41:03.447Z,28.90
2018-09-12T10:51:20.561Z,28.80
2018-09-12T10:56:25.244Z,29.00
2018-09-12T11:01:30.825Z,29.30
2018-09-12T11:06:35.040Z,29.40
2018-09-12T11:16:50.200Z,29.80
2018-09-12T11:21:53.833Z,30.00
2018-09-12T11:26:57.502Z,30.10
2018-09-12T11:32:01.193Z,30.10
2018-09-12T11:37:04.987Z,30.20
2018-09-12T11:42:10.201Z,30.00
2018-09-12T11:47:14.736Z,30.00
2018-09-12T11:52:18.380Z,30.00
2018-09-12T12:02:25.530Z,30.80
2018-09-12T12:07:29.188Z,30.80
2018-09-12T12:17:37.264Z,30.80
2018-09-12T12:22:40.915Z,31.10
2018-09-12T12:27:44.704Z,31.10
2018-09-12T12:32:48.360Z,31.30
2018-09-12T12:37:53.299Z,31.20
2018-09-12T12:42:59.569Z,31.00
2018-09-12T12:48:03.274Z,31.40
2018-09-12T12:53:07.516Z,31.80
2018-09-12T12:58:11.277Z,31.80
2018-09-12T13:03:15.087Z,32.20
2018-09-12T13:13:22.497Z,33.10
2018-09-12T13:18:26.119Z,33.10
2018-09-12T13:23:31.786Z,33.00
2018-09-12T13:28:36.081Z,33.10
2018-09-12T13:33:40.353Z,32.50
2018-09-12T13:38:44.498Z,32.80
2018-09-12T13:43:48.651Z,33.10
2018-09-12T13:48:53.877Z,32.90
2018-09-12T13:53:57.508Z,32.90
2018-09-12T13:59:01.332Z,33.30
2018-09-12T14:04:05.315Z,33.80
2018-09-12T14:09:10.912Z,33.90
2018-09-12T14:14:15.415Z,34.30
2018-09-12T14:19:19.069Z,34.30
2018-09-12T14:24:23.376Z,34.40
2018-09-12T14:29:27.761Z,34.50
2018-09-12T14:34:31.721Z,34.50
2018-09-12T14:44:43.337Z,34.40
2018-09-12T14:49:52.114Z,34.20
2018-09-12T14:55:33.424Z,33.70
2018-09-12T15:00:47.019Z,33.60
2018-09-12T15:06:23.043Z,33.70
2018-09-12T15:11:53.896Z,34.60
2018-09-12T15:17:34.233Z,34.20
2018-09-12T15:22:56.493Z,34.30
2018-09-12T15:33:19.616Z,34.90
2018-09-12T15:53:33.425Z,33.30
2018-09-12T15:58:37.519Z,33.00
2018-09-12T16:03:41.672Z,33.00
2018-09-12T16:08:45.676Z,33.10
2018-09-12T16:13:49.893Z,33.20
2018-09-12T16:18:53.928Z,33.20
2018-09-12T16:23:57.698Z,32.50
2018-09-12T16:29:02.984Z,32.10
2018-09-12T16:34:06.912Z,31.90
2018-09-12T16:39:20.648Z,32.10
2018-09-12T16:44:24.647Z,32.20
2018-09-12T16:49:28.481Z,32.40
2018-09-12T16:54:32.967Z,32.40
2018-09-12T16:59:38.278Z,32.00
2018-09-12T17:04:43.133Z,31.90
2018-09-12T17:09:47.293Z,31.80
2018-09-12T17:14:51.184Z,31.40
2018-09-12T17:19:54.843Z,31.00
2018-09-12T17:24:58.679Z,30.60
2018-09-12T17:30:02.412Z,30.60
2018-09-12T17:35:06.184Z,30.20
2018-09-12T17:40:10.504Z,30.10
2018-09-12T17:45:14.808Z,29.50
2018-09-12T17:50:18.478Z,29.40
2018-09-12T17:55:22.416Z,29.10
2018-09-12T18:00:29.819Z,29.00
2018-09-12T18:05:34.174Z,28.80
2018-09-12T18:10:38.162Z,28.40
2018-09-12T18:20:46.476Z,28.30
2018-09-12T18:25:50.511Z,28.00
2018-09-12T18:30:54.570Z,27.80
2018-09-12T18:35:59.631Z,27.90
2018-09-12T18:41:03.397Z,27.80
2018-09-12T18:46:07.075Z,27.60
2018-09-12T18:51:11.231Z,27.60
2018-09-12T19:01:18.860Z,26.90
2018-09-12T19:11:26.071Z,26.90
2018-09-12T19:16:29.931Z,26.80
2018-09-12T19:21:33.603Z,26.60
2018-09-12T19:36:50.367Z,26.70
2018-09-12T19:46:57.688Z,26.60
2018-09-12T19:52:01.410Z,26.50
2018-09-12T20:02:09.158Z,26.20
2018-09-12T20:12:16.351Z,25.50
2018-09-12T20:17:20.742Z,25.40
2018-09-12T20:22:24.429Z,25.20
2018-09-12T20:27:28.108Z,25.00
2018-09-12T20:32:32.124Z,24.90
2018-09-12T20:37:35.829Z,24.70
2018-09-12T20:42:40.040Z,24.60
2018-09-12T21:07:58.490Z,24.60
2018-09-12T21:13:03.143Z,24.70
2018-09-12T21:18:07.553Z,24.60
2018-09-12T21:28:15.655Z,23.60
2018-09-12T21:33:25.376Z,23.80
2018-09-12T21:38:29.547Z,24.00
2018-09-12T21:43:34.180Z,24.20
2018-09-12T21:48:40.497Z,24.30
2018-09-12T21:53:44.156Z,24.30
2018-09-12T21:58:48.182Z,24.30
2018-09-12T22:03:52.531Z,24.20
2018-09-12T22:09:00.672Z,24.10
2018-09-12T22:14:05.119Z,24.10
2018-09-12T22:19:09.092Z,24.00
2018-09-12T22:24:12.934Z,24.00
2018-09-12T22:29:16.713Z,23.80
2018-09-12T22:34:20.414Z,23.80
2018-09-12T22:39:24.063Z,24.00
2018-09-12T22:44:29.588Z,24.00
2018-09-12T22:49:33.274Z,23.90
2018-09-12T22:59:40.704Z,23.90
2018-09-12T23:04:44.733Z,23.80
2018-09-12T23:09:48.484Z,23.90
2018-09-12T23:14:52.411Z,23.80
2018-09-12T23:19:56.054Z,23.60
2018-09-12T23:24:59.651Z,23.40
2018-09-12T23:30:03.291Z,23.50
2018-09-12T23:35:07.048Z,23.40
2018-09-12T23:40:11.311Z,23.40
2018-09-12T23:45:15.475Z,23.30
2018-09-12T23:50:19.080Z,23.20
2018-09-12T23:55:22.720Z,23.20
